sensor_id;sensor_type;location;lat;lon;timestamp;P1;durP1;ratioP1;P2;durP2;ratioP2
12120;SDS011;6124;59.460;17.908;2023-07-13T00:00:00;4.20;;;3.77;;
12120;SDS011;6124;59.460;17.908;2023-07-13T00:02:28;3.90;;;3.50;;
12120;SDS011;6124;59.460;17.908;2023-07-13T00:04:57;3.97;;;3.60;;
12120;SDS011;6124;59.460;17.908;2023-07-13T00:07:25;4.77;;;3.73;;
12120;SDS011;6124;59.460;17.908;2023-07-13T00:09:52;3.90;;;3.60;;
12120;SDS011;6124;59.460;17.908;2023-07-13T00:12:24;4.37;;;3.73;;
12120;SDS011;6124;59.460;17.908;2023-07-13T00:14:52;5.30;;;3.80;;
12120;SDS011;6124;59.460;17.908;2023-07-13T00:17:21;5.07;;;3.80;;
12120;SDS011;6124;59.460;17.908;2023-07-13T00:19:49;4.77;;;3.37;;
12120;SDS011;6124;59.460;17.908;2023-07-13T00:22:17;4.00;;;3.63;;
12120;SDS011;6124;59.460;17.908;2023-07-13T00:24:44;3.83;;;3.47;;
12120;SDS011;6124;59.460;17.908;2023-07-13T00:27:12;4.13;;;3.73;;
12120;SDS011;6124;59.460;17.908;2023-07-13T00:29:39;3.83;;;3.43;;
12120;SDS011;6124;59.460;17.908;2023-07-13T00:32:07;5.37;;;3.83;;
12120;SDS011;6124;59.460;17.908;2023-07-13T00:34:37;3.60;;;3.30;;
12120;SDS011;6124;59.460;17.908;2023-07-13T00:37:05;3.73;;;3.43;;
12120;SDS011;6124;59.460;17.908;2023-07-13T00:39:33;3.90;;;3.57;;
12120;SDS011;6124;59.460;17.908;2023-07-13T00:42:01;4.23;;;3.83;;
12120;SDS011;6124;59.460;17.908;2023-07-13T00:44:29;4.33;;;3.57;;
12120;SDS011;6124;59.460;17.908;2023-07-13T00:46:57;3.77;;;3.10;;
12120;SDS011;6124;59.460;17.908;2023-07-13T00:49:25;3.63;;;3.13;;
12120;SDS011;6124;59.460;17.908;2023-07-13T00:51:56;3.67;;;3.37;;
12120;SDS011;6124;59.460;17.908;2023-07-13T00:54:25;4.90;;;3.73;;
12120;SDS011;6124;59.460;17.908;2023-07-13T00:56:54;3.40;;;3.10;;
12120;SDS011;6124;59.460;17.908;2023-07-13T00:59:23;3.93;;;3.50;;
12120;SDS011;6124;59.460;17.908;2023-07-13T01:01:51;3.90;;;3.50;;
12120;SDS011;6124;59.460;17.908;2023-07-13T01:04:18;3.90;;;3.40;;
12120;SDS011;6124;59.460;17.908;2023-07-13T01:06:46;3.70;;;3.37;;
12120;SDS011;6124;59.460;17.908;2023-07-13T01:09:15;4.27;;;3.20;;
12120;SDS011;6124;59.460;17.908;2023-07-13T01:11:43;4.70;;;3.20;;
12120;SDS011;6124;59.460;17.908;2023-07-13T01:14:11;3.90;;;3.40;;
12120;SDS011;6124;59.460;17.908;2023-07-13T01:16:39;4.10;;;3.37;;
12120;SDS011;6124;59.460;17.908;2023-07-13T01:19:10;3.60;;;3.30;;
12120;SDS011;6124;59.460;17.908;2023-07-13T01:21:41;4.83;;;4.00;;
12120;SDS011;6124;59.460;17.908;2023-07-13T01:24:08;4.93;;;3.30;;
12120;SDS011;6124;59.460;17.908;2023-07-13T01:26:36;3.30;;;3.00;;
12120;SDS011;6124;59.460;17.908;2023-07-13T01:29:03;3.33;;;3.03;;
12120;SDS011;6124;59.460;17.908;2023-07-13T01:31:32;3.60;;;3.30;;
12120;SDS011;6124;59.460;17.908;2023-07-13T01:34:00;4.37;;;3.33;;
12120;SDS011;6124;59.460;17.908;2023-07-13T01:36:27;4.47;;;2.97;;
12120;SDS011;6124;59.460;17.908;2023-07-13T01:38:56;4.30;;;3.13;;
12120;SDS011;6124;59.460;17.908;2023-07-13T01:41:23;4.20;;;3.20;;
12120;SDS011;6124;59.460;17.908;2023-07-13T01:43:51;3.70;;;3.40;;
12120;SDS011;6124;59.460;17.908;2023-07-13T01:46:18;4.53;;;3.50;;
12120;SDS011;6124;59.460;17.908;2023-07-13T01:48:46;4.70;;;3.70;;
12120;SDS011;6124;59.460;17.908;2023-07-13T01:51:13;5.03;;;3.70;;
12120;SDS011;6124;59.460;17.908;2023-07-13T01:53:41;5.43;;;4.70;;
12120;SDS011;6124;59.460;17.908;2023-07-13T01:56:10;7.03;;;6.07;;
12120;SDS011;6124;59.460;17.908;2023-07-13T01:58:37;6.03;;;5.43;;
12120;SDS011;6124;59.460;17.908;2023-07-13T02:01:05;6.60;;;5.60;;
12120;SDS011;6124;59.460;17.908;2023-07-13T02:03:32;7.03;;;5.60;;
12120;SDS011;6124;59.460;17.908;2023-07-13T02:05:59;9.00;;;6.37;;
12120;SDS011;6124;59.460;17.908;2023-07-13T02:08:27;9.90;;;6.60;;
12120;SDS011;6124;59.460;17.908;2023-07-13T02:10:54;9.07;;;5.87;;
12120;SDS011;6124;59.460;17.908;2023-07-13T02:13:23;6.83;;;5.50;;
12120;SDS011;6124;59.460;17.908;2023-07-13T02:15:50;7.87;;;6.10;;
12120;SDS011;6124;59.460;17.908;2023-07-13T02:18:18;7.83;;;5.53;;
12120;SDS011;6124;59.460;17.908;2023-07-13T02:20:45;9.90;;;5.70;;
12120;SDS011;6124;59.460;17.908;2023-07-13T02:23:13;7.70;;;5.17;;
12120;SDS011;6124;59.460;17.908;2023-07-13T02:25:41;6.00;;;5.20;;
12120;SDS011;6124;59.460;17.908;2023-07-13T02:28:08;7.37;;;5.20;;
12120;SDS011;6124;59.460;17.908;2023-07-13T02:30:37;6.73;;;4.67;;
12120;SDS011;6124;59.460;17.908;2023-07-13T02:33:04;7.37;;;4.40;;
12120;SDS011;6124;59.460;17.908;2023-07-13T02:35:32;5.50;;;4.40;;
12120;SDS011;6124;59.460;17.908;2023-07-13T02:38:00;7.10;;;4.63;;
12120;SDS011;6124;59.460;17.908;2023-07-13T02:40:27;9.70;;;5.23;;
12120;SDS011;6124;59.460;17.908;2023-07-13T02:42:54;6.27;;;4.17;;
12120;SDS011;6124;59.460;17.908;2023-07-13T02:45:22;6.27;;;4.50;;
12120;SDS011;6124;59.460;17.908;2023-07-13T02:47:51;4.60;;;4.10;;
12120;SDS011;6124;59.460;17.908;2023-07-13T02:50:18;6.83;;;4.67;;
12120;SDS011;6124;59.460;17.908;2023-07-13T02:52:46;6.20;;;4.33;;
12120;SDS011;6124;59.460;17.908;2023-07-13T02:55:13;5.47;;;4.40;;
12120;SDS011;6124;59.460;17.908;2023-07-13T02:57:40;7.20;;;4.17;;
12120;SDS011;6124;59.460;17.908;2023-07-13T03:00:08;5.60;;;4.20;;
12120;SDS011;6124;59.460;17.908;2023-07-13T03:02:36;6.13;;;4.27;;
12120;SDS011;6124;59.460;17.908;2023-07-13T03:05:05;8.57;;;4.77;;
12120;SDS011;6124;59.460;17.908;2023-07-13T03:07:37;6.73;;;4.50;;
12120;SDS011;6124;59.460;17.908;2023-07-13T03:10:05;7.37;;;4.17;;
12120;SDS011;6124;59.460;17.908;2023-07-13T03:12:33;6.53;;;4.53;;
12120;SDS011;6124;59.460;17.908;2023-07-13T03:15:00;6.87;;;4.70;;
12120;SDS011;6124;59.460;17.908;2023-07-13T03:17:28;6.20;;;4.63;;
12120;SDS011;6124;59.460;17.908;2023-07-13T03:19:55;5.10;;;4.60;;
12120;SDS011;6124;59.460;17.908;2023-07-13T03:22:24;6.43;;;4.67;;
12120;SDS011;6124;59.460;17.908;2023-07-13T03:24:52;4.60;;;4.20;;
12120;SDS011;6124;59.460;17.908;2023-07-13T03:27:19;6.53;;;4.80;;
12120;SDS011;6124;59.460;17.908;2023-07-13T03:29:46;5.47;;;4.60;;
12120;SDS011;6124;59.460;17.908;2023-07-13T03:32:14;5.63;;;4.53;;
12120;SDS011;6124;59.460;17.908;2023-07-13T03:34:41;6.77;;;4.70;;
12120;SDS011;6124;59.460;17.908;2023-07-13T03:37:09;5.73;;;4.43;;
12120;SDS011;6124;59.460;17.908;2023-07-13T03:39:37;6.53;;;4.73;;
12120;SDS011;6124;59.460;17.908;2023-07-13T03:42:05;5.87;;;4.80;;
12120;SDS011;6124;59.460;17.908;2023-07-13T03:44:33;6.17;;;4.60;;
12120;SDS011;6124;59.460;17.908;2023-07-13T03:47:00;8.27;;;4.73;;
12120;SDS011;6124;59.460;17.908;2023-07-13T03:49:28;6.50;;;4.50;;
12120;SDS011;6124;59.460;17.908;2023-07-13T03:51:55;7.70;;;4.57;;
12120;SDS011;6124;59.460;17.908;2023-07-13T03:54:22;6.63;;;4.50;;
12120;SDS011;6124;59.460;17.908;2023-07-13T03:56:51;4.50;;;3.97;;
12120;SDS011;6124;59.460;17.908;2023-07-13T03:59:18;6.73;;;4.60;;
12120;SDS011;6124;59.460;17.908;2023-07-13T04:01:46;6.00;;;4.40;;
12120;SDS011;6124;59.460;17.908;2023-07-13T04:04:13;7.80;;;4.43;;
12120;SDS011;6124;59.460;17.908;2023-07-13T04:06:41;5.77;;;4.30;;
12120;SDS011;6124;59.460;17.908;2023-07-13T04:09:08;8.03;;;4.47;;
12120;SDS011;6124;59.460;17.908;2023-07-13T04:11:36;5.53;;;3.83;;
12120;SDS011;6124;59.460;17.908;2023-07-13T04:14:05;4.63;;;3.50;;
12120;SDS011;6124;59.460;17.908;2023-07-13T04:16:32;4.93;;;3.70;;
12120;SDS011;6124;59.460;17.908;2023-07-13T04:18:59;5.43;;;3.90;;
12120;SDS011;6124;59.460;17.908;2023-07-13T04:21:27;6.53;;;3.67;;
12120;SDS011;6124;59.460;17.908;2023-07-13T04:23:54;9.73;;;3.87;;
12120;SDS011;6124;59.460;17.908;2023-07-13T04:26:22;4.70;;;3.57;;
12120;SDS011;6124;59.460;17.908;2023-07-13T04:28:50;6.00;;;3.87;;
12120;SDS011;6124;59.460;17.908;2023-07-13T04:31:19;6.93;;;3.73;;
12120;SDS011;6124;59.460;17.908;2023-07-13T04:33:46;6.37;;;3.70;;
12120;SDS011;6124;59.460;17.908;2023-07-13T04:36:14;4.73;;;3.60;;
12120;SDS011;6124;59.460;17.908;2023-07-13T04:38:41;8.90;;;3.87;;
12120;SDS011;6124;59.460;17.908;2023-07-13T04:41:09;7.50;;;3.80;;
12120;SDS011;6124;59.460;17.908;2023-07-13T04:43:36;6.07;;;3.40;;
12120;SDS011;6124;59.460;17.908;2023-07-13T04:46:04;5.87;;;3.83;;
12120;SDS011;6124;59.460;17.908;2023-07-13T04:48:33;5.77;;;3.50;;
12120;SDS011;6124;59.460;17.908;2023-07-13T04:51:01;5.90;;;3.10;;
12120;SDS011;6124;59.460;17.908;2023-07-13T04:53:29;4.13;;;2.70;;
12120;SDS011;6124;59.460;17.908;2023-07-13T04:55:57;4.43;;;2.80;;
12120;SDS011;6124;59.460;17.908;2023-07-13T04:58:24;6.70;;;2.83;;
12120;SDS011;6124;59.460;17.908;2023-07-13T05:00:52;9.67;;;2.87;;
12120;SDS011;6124;59.460;17.908;2023-07-13T05:03:20;7.50;;;3.00;;
12120;SDS011;6124;59.460;17.908;2023-07-13T05:05:55;3.00;;;2.60;;
12120;SDS011;6124;59.460;17.908;2023-07-13T05:08:23;3.83;;;2.87;;
12120;SDS011;6124;59.460;17.908;2023-07-13T05:10:51;4.57;;;2.77;;
12120;SDS011;6124;59.460;17.908;2023-07-13T05:13:18;7.23;;;3.20;;
12120;SDS011;6124;59.460;17.908;2023-07-13T05:15:47;6.20;;;3.07;;
12120;SDS011;6124;59.460;17.908;2023-07-13T05:18:14;5.50;;;2.87;;
12120;SDS011;6124;59.460;17.908;2023-07-13T05:20:42;8.07;;;3.00;;
12120;SDS011;6124;59.460;17.908;2023-07-13T05:23:10;6.83;;;3.30;;
12120;SDS011;6124;59.460;17.908;2023-07-13T05:25:38;5.90;;;2.90;;
12120;SDS011;6124;59.460;17.908;2023-07-13T05:28:06;4.70;;;2.67;;
12120;SDS011;6124;59.460;17.908;2023-07-13T05:30:33;4.70;;;2.90;;
12120;SDS011;6124;59.460;17.908;2023-07-13T05:33:00;4.00;;;2.70;;
12120;SDS011;6124;59.460;17.908;2023-07-13T05:35:28;5.53;;;2.87;;
12120;SDS011;6124;59.460;17.908;2023-07-13T05:37:55;6.33;;;2.57;;
12120;SDS011;6124;59.460;17.908;2023-07-13T05:40:24;7.60;;;3.47;;
12120;SDS011;6124;59.460;17.908;2023-07-13T05:42:51;5.50;;;2.90;;
12120;SDS011;6124;59.460;17.908;2023-07-13T05:45:20;3.63;;;2.80;;
12120;SDS011;6124;59.460;17.908;2023-07-13T05:47:47;5.90;;;3.13;;
12120;SDS011;6124;59.460;17.908;2023-07-13T05:50:15;7.03;;;2.73;;
12120;SDS011;6124;59.460;17.908;2023-07-13T05:52:42;6.47;;;3.00;;
12120;SDS011;6124;59.460;17.908;2023-07-13T05:55:09;3.90;;;2.50;;
12120;SDS011;6124;59.460;17.908;2023-07-13T05:57:38;3.63;;;2.50;;
12120;SDS011;6124;59.460;17.908;2023-07-13T06:00:06;3.87;;;2.43;;
12120;SDS011;6124;59.460;17.908;2023-07-13T06:02:34;4.80;;;2.53;;
12120;SDS011;6124;59.460;17.908;2023-07-13T06:05:01;4.57;;;2.53;;
12120;SDS011;6124;59.460;17.908;2023-07-13T06:07:29;4.17;;;2.57;;
12120;SDS011;6124;59.460;17.908;2023-07-13T06:09:56;7.77;;;2.50;;
12120;SDS011;6124;59.460;17.908;2023-07-13T06:12:24;5.97;;;2.53;;
12120;SDS011;6124;59.460;17.908;2023-07-13T06:14:53;5.17;;;2.40;;
12120;SDS011;6124;59.460;17.908;2023-07-13T06:17:20;4.77;;;2.53;;
12120;SDS011;6124;59.460;17.908;2023-07-13T06:19:48;5.10;;;2.77;;
12120;SDS011;6124;59.460;17.908;2023-07-13T06:22:15;3.97;;;2.10;;
12120;SDS011;6124;59.460;17.908;2023-07-13T06:24:42;5.60;;;2.40;;
12120;SDS011;6124;59.460;17.908;2023-07-13T06:27:10;4.57;;;2.20;;
12120;SDS011;6124;59.460;17.908;2023-07-13T06:29:37;5.00;;;2.60;;
12120;SDS011;6124;59.460;17.908;2023-07-13T06:32:07;4.40;;;2.27;;
12120;SDS011;6124;59.460;17.908;2023-07-13T06:34:35;4.50;;;2.30;;
12120;SDS011;6124;59.460;17.908;2023-07-13T06:37:02;2.63;;;2.13;;
12120;SDS011;6124;59.460;17.908;2023-07-13T06:39:30;6.27;;;2.43;;
12120;SDS011;6124;59.460;17.908;2023-07-13T06:41:57;4.77;;;2.30;;
12120;SDS011;6124;59.460;17.908;2023-07-13T06:44:24;4.63;;;2.60;;
12120;SDS011;6124;59.460;17.908;2023-07-13T06:46:52;9.03;;;2.37;;
12120;SDS011;6124;59.460;17.908;2023-07-13T06:49:21;5.50;;;2.50;;
12120;SDS011;6124;59.460;17.908;2023-07-13T06:51:48;5.03;;;2.40;;
12120;SDS011;6124;59.460;17.908;2023-07-13T06:54:15;3.50;;;2.50;;
12120;SDS011;6124;59.460;17.908;2023-07-13T06:56:43;5.33;;;2.50;;
12120;SDS011;6124;59.460;17.908;2023-07-13T06:59:10;4.03;;;2.33;;
12120;SDS011;6124;59.460;17.908;2023-07-13T07:01:37;6.03;;;2.40;;
12120;SDS011;6124;59.460;17.908;2023-07-13T07:04:05;4.43;;;2.00;;
12120;SDS011;6124;59.460;17.908;2023-07-13T07:06:34;5.80;;;2.03;;
12120;SDS011;6124;59.460;17.908;2023-07-13T07:09:01;3.60;;;2.20;;
12120;SDS011;6124;59.460;17.908;2023-07-13T07:11:28;5.93;;;2.60;;
12120;SDS011;6124;59.460;17.908;2023-07-13T07:13:56;6.90;;;2.30;;
12120;SDS011;6124;59.460;17.908;2023-07-13T07:16:24;5.03;;;2.47;;
12120;SDS011;6124;59.460;17.908;2023-07-13T07:18:51;5.20;;;2.27;;
12120;SDS011;6124;59.460;17.908;2023-07-13T07:21:19;4.70;;;2.23;;
12120;SDS011;6124;59.460;17.908;2023-07-13T07:23:49;7.20;;;2.50;;
12120;SDS011;6124;59.460;17.908;2023-07-13T07:26:17;4.57;;;2.30;;
12120;SDS011;6124;59.460;17.908;2023-07-13T07:28:44;3.93;;;2.20;;
12120;SDS011;6124;59.460;17.908;2023-07-13T07:31:12;5.27;;;2.43;;
12120;SDS011;6124;59.460;17.908;2023-07-13T07:33:39;3.83;;;2.30;;
12120;SDS011;6124;59.460;17.908;2023-07-13T07:36:07;5.27;;;2.10;;
12120;SDS011;6124;59.460;17.908;2023-07-13T07:38:34;4.67;;;2.20;;
12120;SDS011;6124;59.460;17.908;2023-07-13T07:41:04;6.33;;;2.30;;
12120;SDS011;6124;59.460;17.908;2023-07-13T07:43:32;3.60;;;2.03;;
12120;SDS011;6124;59.460;17.908;2023-07-13T07:45:59;5.97;;;2.17;;
12120;SDS011;6124;59.460;17.908;2023-07-13T07:48:26;4.33;;;2.00;;
12120;SDS011;6124;59.460;17.908;2023-07-13T07:50:54;4.87;;;2.27;;
12120;SDS011;6124;59.460;17.908;2023-07-13T07:53:21;3.23;;;2.20;;
12120;SDS011;6124;59.460;17.908;2023-07-13T07:55:49;4.60;;;2.37;;
12120;SDS011;6124;59.460;17.908;2023-07-13T07:58:18;6.40;;;2.40;;
12120;SDS011;6124;59.460;17.908;2023-07-13T08:00:45;5.97;;;2.50;;
12120;SDS011;6124;59.460;17.908;2023-07-13T08:03:13;5.33;;;2.00;;
12120;SDS011;6124;59.460;17.908;2023-07-13T08:05:40;6.27;;;2.37;;
12120;SDS011;6124;59.460;17.908;2023-07-13T08:08:08;10.47;;;2.10;;
12120;SDS011;6124;59.460;17.908;2023-07-13T08:10:35;3.50;;;2.10;;
12120;SDS011;6124;59.460;17.908;2023-07-13T08:13:03;4.07;;;2.17;;
12120;SDS011;6124;59.460;17.908;2023-07-13T08:15:32;5.73;;;2.10;;
12120;SDS011;6124;59.460;17.908;2023-07-13T08:17:59;5.77;;;2.20;;
12120;SDS011;6124;59.460;17.908;2023-07-13T08:20:27;4.47;;;2.20;;
12120;SDS011;6124;59.460;17.908;2023-07-13T08:22:55;5.37;;;2.10;;
12120;SDS011;6124;59.460;17.908;2023-07-13T08:25:22;4.03;;;2.00;;
12120;SDS011;6124;59.460;17.908;2023-07-13T08:27:49;3.73;;;2.27;;
12120;SDS011;6124;59.460;17.908;2023-07-13T08:30:17;4.37;;;2.17;;
12120;SDS011;6124;59.460;17.908;2023-07-13T08:32:45;4.23;;;2.20;;
12120;SDS011;6124;59.460;17.908;2023-07-13T08:35:13;3.67;;;1.93;;
12120;SDS011;6124;59.460;17.908;2023-07-13T08:37:41;3.63;;;1.87;;
12120;SDS011;6124;59.460;17.908;2023-07-13T08:40:08;3.87;;;2.20;;
12120;SDS011;6124;59.460;17.908;2023-07-13T08:42:37;4.70;;;1.93;;
12120;SDS011;6124;59.460;17.908;2023-07-13T08:45:13;5.77;;;2.20;;
12120;SDS011;6124;59.460;17.908;2023-07-13T08:47:43;3.00;;;1.80;;
12120;SDS011;6124;59.460;17.908;2023-07-13T08:50:13;5.87;;;2.10;;
12120;SDS011;6124;59.460;17.908;2023-07-13T08:52:41;5.20;;;2.00;;
12120;SDS011;6124;59.460;17.908;2023-07-13T08:55:11;3.60;;;1.73;;
12120;SDS011;6124;59.460;17.908;2023-07-13T08:57:39;4.73;;;2.00;;
12120;SDS011;6124;59.460;17.908;2023-07-13T09:00:09;2.30;;;1.73;;
12120;SDS011;6124;59.460;17.908;2023-07-13T09:02:39;3.10;;;1.73;;
12120;SDS011;6124;59.460;17.908;2023-07-13T09:05:10;3.43;;;2.00;;
12120;SDS011;6124;59.460;17.908;2023-07-13T09:07:44;6.70;;;2.13;;
12120;SDS011;6124;59.460;17.908;2023-07-13T09:10:14;3.40;;;1.57;;
12120;SDS011;6124;59.460;17.908;2023-07-13T09:12:48;5.40;;;2.20;;
12120;SDS011;6124;59.460;17.908;2023-07-13T09:15:23;5.90;;;1.90;;
12120;SDS011;6124;59.460;17.908;2023-07-13T09:17:51;4.40;;;2.03;;
12120;SDS011;6124;59.460;17.908;2023-07-13T09:20:22;2.73;;;1.63;;
12120;SDS011;6124;59.460;17.908;2023-07-13T09:22:52;3.37;;;2.00;;
12120;SDS011;6124;59.460;17.908;2023-07-13T09:25:22;2.13;;;1.83;;
12120;SDS011;6124;59.460;17.908;2023-07-13T09:27:51;4.80;;;1.77;;
12120;SDS011;6124;59.460;17.908;2023-07-13T09:30:23;4.93;;;2.00;;
12120;SDS011;6124;59.460;17.908;2023-07-13T09:32:52;3.30;;;1.93;;
12120;SDS011;6124;59.460;17.908;2023-07-13T09:35:21;5.03;;;1.77;;
12120;SDS011;6124;59.460;17.908;2023-07-13T09:37:49;5.73;;;1.97;;
12120;SDS011;6124;59.460;17.908;2023-07-13T09:40:20;4.63;;;2.00;;
12120;SDS011;6124;59.460;17.908;2023-07-13T09:42:49;4.30;;;1.87;;
12120;SDS011;6124;59.460;17.908;2023-07-13T09:45:17;7.77;;;2.40;;
12120;SDS011;6124;59.460;17.908;2023-07-13T09:47:58;3.07;;;1.93;;
12120;SDS011;6124;59.460;17.908;2023-07-13T09:50:26;5.10;;;1.90;;
12120;SDS011;6124;59.460;17.908;2023-07-13T09:52:54;3.63;;;1.90;;
12120;SDS011;6124;59.460;17.908;2023-07-13T09:55:26;4.20;;;2.10;;
12120;SDS011;6124;59.460;17.908;2023-07-13T09:57:54;2.83;;;1.77;;
12120;SDS011;6124;59.460;17.908;2023-07-13T10:00:22;3.83;;;1.90;;
12120;SDS011;6124;59.460;17.908;2023-07-13T10:02:58;3.20;;;1.80;;
12120;SDS011;6124;59.460;17.908;2023-07-13T10:05:25;4.27;;;1.80;;
12120;SDS011;6124;59.460;17.908;2023-07-13T10:07:53;2.80;;;2.00;;
12120;SDS011;6124;59.460;17.908;2023-07-13T10:10:23;4.73;;;2.00;;
12120;SDS011;6124;59.460;17.908;2023-07-13T10:12:52;2.80;;;1.60;;
12120;SDS011;6124;59.460;17.908;2023-07-13T10:15:21;6.23;;;2.00;;
12120;SDS011;6124;59.460;17.908;2023-07-13T10:17:49;5.20;;;1.83;;
12120;SDS011;6124;59.460;17.908;2023-07-13T10:20:17;2.93;;;1.57;;
12120;SDS011;6124;59.460;17.908;2023-07-13T10:22:49;4.03;;;1.53;;
12120;SDS011;6124;59.460;17.908;2023-07-13T10:25:18;3.67;;;1.50;;
12120;SDS011;6124;59.460;17.908;2023-07-13T10:27:47;3.67;;;1.80;;
12120;SDS011;6124;59.460;17.908;2023-07-13T10:30:19;3.47;;;1.90;;
12120;SDS011;6124;59.460;17.908;2023-07-13T10:32:47;4.20;;;1.87;;
12120;SDS011;6124;59.460;17.908;2023-07-13T10:35:16;2.43;;;1.50;;
12120;SDS011;6124;59.460;17.908;2023-07-13T10:37:45;4.70;;;1.83;;
12120;SDS011;6124;59.460;17.908;2023-07-13T10:40:16;3.87;;;1.80;;
12120;SDS011;6124;59.460;17.908;2023-07-13T10:42:46;3.73;;;1.40;;
12120;SDS011;6124;59.460;17.908;2023-07-13T10:45:15;4.77;;;2.07;;
12120;SDS011;6124;59.460;17.908;2023-07-13T10:47:45;2.67;;;1.57;;
12120;SDS011;6124;59.460;17.908;2023-07-13T10:50:15;3.83;;;1.60;;
12120;SDS011;6124;59.460;17.908;2023-07-13T10:52:45;4.93;;;1.83;;
12120;SDS011;6124;59.460;17.908;2023-07-13T10:55:35;2.93;;;1.67;;
12120;SDS011;6124;59.460;17.908;2023-07-13T10:58:03;4.03;;;1.80;;
12120;SDS011;6124;59.460;17.908;2023-07-13T11:00:43;3.40;;;1.67;;
12120;SDS011;6124;59.460;17.908;2023-07-13T11:03:13;2.53;;;1.73;;
12120;SDS011;6124;59.460;17.908;2023-07-13T11:05:41;3.97;;;1.77;;
12120;SDS011;6124;59.460;17.908;2023-07-13T11:08:15;3.70;;;1.70;;
12120;SDS011;6124;59.460;17.908;2023-07-13T11:10:49;3.17;;;1.83;;
12120;SDS011;6124;59.460;17.908;2023-07-13T11:13:36;2.37;;;1.60;;
12120;SDS011;6124;59.460;17.908;2023-07-13T11:16:12;3.10;;;1.83;;
12120;SDS011;6124;59.460;17.908;2023-07-13T11:18:41;3.37;;;1.57;;
12120;SDS011;6124;59.460;17.908;2023-07-13T11:21:15;4.33;;;1.80;;
12120;SDS011;6124;59.460;17.908;2023-07-13T11:23:43;4.23;;;1.70;;
12120;SDS011;6124;59.460;17.908;2023-07-13T11:28:53;3.40;;;1.77;;
12120;SDS011;6124;59.460;17.908;2023-07-13T11:31:20;3.90;;;1.80;;
12120;SDS011;6124;59.460;17.908;2023-07-13T11:33:59;2.20;;;1.50;;
12120;SDS011;6124;59.460;17.908;2023-07-13T11:36:36;3.60;;;1.73;;
12120;SDS011;6124;59.460;17.908;2023-07-13T11:39:05;3.30;;;1.77;;
12120;SDS011;6124;59.460;17.908;2023-07-13T11:41:42;2.80;;;1.60;;
12120;SDS011;6124;59.460;17.908;2023-07-13T11:44:12;2.73;;;1.60;;
12120;SDS011;6124;59.460;17.908;2023-07-13T11:46:44;5.90;;;1.73;;
12120;SDS011;6124;59.460;17.908;2023-07-13T11:49:14;3.17;;;1.67;;
12120;SDS011;6124;59.460;17.908;2023-07-13T11:51:42;3.60;;;1.77;;
12120;SDS011;6124;59.460;17.908;2023-07-13T11:54:14;3.63;;;1.80;;
12120;SDS011;6124;59.460;17.908;2023-07-13T11:56:42;2.73;;;1.40;;
12120;SDS011;6124;59.460;17.908;2023-07-13T11:59:11;3.87;;;1.77;;
12120;SDS011;6124;59.460;17.908;2023-07-13T12:01:42;2.77;;;1.60;;
12120;SDS011;6124;59.460;17.908;2023-07-13T12:04:11;3.23;;;1.60;;
12120;SDS011;6124;59.460;17.908;2023-07-13T12:06:48;2.93;;;1.50;;
12120;SDS011;6124;59.460;17.908;2023-07-13T12:09:21;3.73;;;1.67;;
12120;SDS011;6124;59.460;17.908;2023-07-13T12:11:50;3.83;;;1.77;;
12120;SDS011;6124;59.460;17.908;2023-07-13T12:14:18;3.90;;;1.73;;
12120;SDS011;6124;59.460;17.908;2023-07-13T12:16:48;6.33;;;1.73;;
12120;SDS011;6124;59.460;17.908;2023-07-13T12:19:17;3.27;;;1.50;;
12120;SDS011;6124;59.460;17.908;2023-07-13T12:21:44;4.07;;;1.70;;
12120;SDS011;6124;59.460;17.908;2023-07-13T12:24:19;3.23;;;1.60;;
12120;SDS011;6124;59.460;17.908;2023-07-13T12:26:50;3.23;;;1.30;;
12120;SDS011;6124;59.460;17.908;2023-07-13T12:29:18;4.63;;;1.73;;
12120;SDS011;6124;59.460;17.908;2023-07-13T12:31:46;6.63;;;2.00;;
12120;SDS011;6124;59.460;17.908;2023-07-13T12:34:16;4.47;;;1.70;;
12120;SDS011;6124;59.460;17.908;2023-07-13T12:36:47;2.33;;;1.43;;
12120;SDS011;6124;59.460;17.908;2023-07-13T12:39:18;4.20;;;1.60;;
12120;SDS011;6124;59.460;17.908;2023-07-13T12:41:46;2.50;;;1.53;;
12120;SDS011;6124;59.460;17.908;2023-07-13T12:44:14;3.30;;;1.60;;
12120;SDS011;6124;59.460;17.908;2023-07-13T12:46:56;2.80;;;1.70;;
12120;SDS011;6124;59.460;17.908;2023-07-13T12:49:26;5.43;;;1.83;;
12120;SDS011;6124;59.460;17.908;2023-07-13T12:51:58;1.57;;;1.43;;
12120;SDS011;6124;59.460;17.908;2023-07-13T12:54:28;3.13;;;1.73;;
12120;SDS011;6124;59.460;17.908;2023-07-13T12:56:56;2.70;;;1.60;;
12120;SDS011;6124;59.460;17.908;2023-07-13T12:59:24;2.20;;;1.70;;
12120;SDS011;6124;59.460;17.908;2023-07-13T13:01:53;3.27;;;1.80;;
12120;SDS011;6124;59.460;17.908;2023-07-13T13:04:20;4.63;;;1.67;;
12120;SDS011;6124;59.460;17.908;2023-07-13T13:06:48;3.77;;;1.93;;
12120;SDS011;6124;59.460;17.908;2023-07-13T13:09:16;3.30;;;1.67;;
12120;SDS011;6124;59.460;17.908;2023-07-13T13:11:46;4.70;;;1.87;;
12120;SDS011;6124;59.460;17.908;2023-07-13T13:14:15;5.03;;;1.63;;
12120;SDS011;6124;59.460;17.908;2023-07-13T13:16:45;4.10;;;2.10;;
12120;SDS011;6124;59.460;17.908;2023-07-13T13:19:14;2.70;;;1.67;;
12120;SDS011;6124;59.460;17.908;2023-07-13T13:21:42;2.67;;;1.70;;
12120;SDS011;6124;59.460;17.908;2023-07-13T13:24:11;4.30;;;1.87;;
12120;SDS011;6124;59.460;17.908;2023-07-13T13:26:39;6.30;;;1.90;;
12120;SDS011;6124;59.460;17.908;2023-07-13T13:29:13;2.90;;;1.57;;
12120;SDS011;6124;59.460;17.908;2023-07-13T13:31:41;2.50;;;1.67;;
12120;SDS011;6124;59.460;17.908;2023-07-13T13:34:09;2.67;;;1.60;;
12120;SDS011;6124;59.460;17.908;2023-07-13T13:36:37;3.63;;;1.60;;
12120;SDS011;6124;59.460;17.908;2023-07-13T13:39:05;4.60;;;1.50;;
12120;SDS011;6124;59.460;17.908;2023-07-13T13:41:37;3.00;;;1.63;;
12120;SDS011;6124;59.460;17.908;2023-07-13T13:44:08;3.30;;;1.70;;
12120;SDS011;6124;59.460;17.908;2023-07-13T13:46:37;4.67;;;1.97;;
12120;SDS011;6124;59.460;17.908;2023-07-13T13:49:04;4.17;;;1.83;;
12120;SDS011;6124;59.460;17.908;2023-07-13T13:51:32;3.40;;;1.63;;
12120;SDS011;6124;59.460;17.908;2023-07-13T13:53:59;2.57;;;1.63;;
12120;SDS011;6124;59.460;17.908;2023-07-13T13:56:27;3.63;;;1.77;;
12120;SDS011;6124;59.460;17.908;2023-07-13T13:58:55;3.37;;;1.67;;
12120;SDS011;6124;59.460;17.908;2023-07-13T14:01:22;2.83;;;1.70;;
12120;SDS011;6124;59.460;17.908;2023-07-13T14:03:51;3.47;;;1.73;;
12120;SDS011;6124;59.460;17.908;2023-07-13T14:06:18;4.03;;;1.73;;
12120;SDS011;6124;59.460;17.908;2023-07-13T14:08:46;2.60;;;1.67;;
12120;SDS011;6124;59.460;17.908;2023-07-13T14:11:14;2.13;;;1.70;;
12120;SDS011;6124;59.460;17.908;2023-07-13T14:13:43;2.90;;;1.53;;
12120;SDS011;6124;59.460;17.908;2023-07-13T14:16:12;4.00;;;1.80;;
12120;SDS011;6124;59.460;17.908;2023-07-13T14:18:43;3.20;;;1.67;;
12120;SDS011;6124;59.460;17.908;2023-07-13T14:21:15;3.90;;;1.90;;
12120;SDS011;6124;59.460;17.908;2023-07-13T14:23:43;3.57;;;1.50;;
12120;SDS011;6124;59.460;17.908;2023-07-13T14:26:11;2.33;;;1.60;;
12120;SDS011;6124;59.460;17.908;2023-07-13T14:28:41;3.27;;;1.70;;
12120;SDS011;6124;59.460;17.908;2023-07-13T14:31:09;5.00;;;1.63;;
12120;SDS011;6124;59.460;17.908;2023-07-13T14:33:36;2.27;;;1.50;;
12120;SDS011;6124;59.460;17.908;2023-07-13T14:36:05;1.80;;;1.50;;
12120;SDS011;6124;59.460;17.908;2023-07-13T14:38:45;4.27;;;1.50;;
12120;SDS011;6124;59.460;17.908;2023-07-13T14:41:12;4.30;;;1.70;;
12120;SDS011;6124;59.460;17.908;2023-07-13T14:43:40;4.30;;;1.50;;
12120;SDS011;6124;59.460;17.908;2023-07-13T14:46:07;2.20;;;1.60;;
12120;SDS011;6124;59.460;17.908;2023-07-13T14:48:43;2.23;;;1.70;;
12120;SDS011;6124;59.460;17.908;2023-07-13T14:51:11;4.10;;;1.63;;
12120;SDS011;6124;59.460;17.908;2023-07-13T14:53:38;3.83;;;1.70;;
12120;SDS011;6124;59.460;17.908;2023-07-13T14:56:10;4.53;;;1.63;;
12120;SDS011;6124;59.460;17.908;2023-07-13T14:58:37;4.60;;;1.70;;